• Join FlightAware (Why Join?)
  • Login
  • US Flag 
10:32PM EDT


 

Airport Tracker/Info


-or-


 

Live Flight TrackerFlight Track Log ✈ EJA396 ✈ 22-Jun-2013 ✈ KXNA - KHOU

Flight Track Log - Related Links

Times and Time Zones

All times are in EDT time to prevent confusion due to time zone crossing. See the EJA396 flight status page for this flight to view local times or setup timezone preferences in your user account.

Time Position Orientation Groundspeed Altitude Reporting Facility
EDT Latitude Longitude Course Direction KTS MPH feet Rate Location/Type
04:52PM 36.1144 -94.3189 186° South 260 299 12,100  Level Memphis Center
04:53PM 36.0389 -94.3356 190° South 285 328 15,100 2,640 Climbing Memphis Center
04:54PM 35.9403 -94.3567 190° South 324 373 17,400 1,440 Climbing Memphis Center
04:55PM 35.8311 -94.3794 190° South 371 427 18,000 300 Climbing Memphis Center
04:56PM 35.6937 -94.4001 191° South  Level Estimated
04:56PM 35.7242 -94.3947 187° South 393 452 18,000  Level Memphis Center
04:57PM 35.5958 -94.4153 186° South  Level Estimated
04:57PM 35.6397 -94.3625 163° South 388 447 18,000  Level Memphis Center
04:58PM 35.5247 -94.3058 158° South 394 453 18,000 480 Level Memphis Center
04:59PM 35.4222 -94.2528 157° South 394 453 19,000 1,800 Climbing Memphis Center
05:00PM 35.3214 -94.2047 159° South 400 460 21,700 2,820 Climbing Memphis Center
05:01PM 35.2000 -94.1508 160° South 406 467 24,700 2,460 Climbing Memphis Center
05:02PM 35.0972 -94.1006 158° South 406 467 26,700 1,980 Climbing Memphis Center
05:03PM 34.9861 -94.0475 159° South 411 473 28,700 1,980 Climbing Memphis Center
05:04PM 34.8731 -93.9919 158° South 424 488 30,700 1,800 Climbing Memphis Center
05:05PM 34.7558 -93.9389 160° South 437 503 32,400 1,560 Climbing Memphis Center
05:06PM 34.6425 -93.8836 158° South 442 509 33,900 420 Climbing Memphis Center
05:08PM 34.3558 -93.7533 159° South 452 520 34,000  Climbing Fort Worth Center
05:09PM 34.2331 -93.6958 159° South 467 537 34,000  Level Fort Worth Center
05:10PM 34.1083 -93.6358 158° South 473 544 34,000  Level Fort Worth Center
05:11PM 33.9856 -93.5786 159° South 473 544 34,000  Level Fort Worth Center
05:12PM 33.8647 -93.5214 159° South 473 544 34,000  Level Fort Worth Center
05:13PM 33.7547 -93.4714 159° South 473 544 34,000  Level Fort Worth Center
05:14PM 33.6361 -93.4169 159° South 473 544 34,000  Level Fort Worth Center
05:15PM 33.5133 -93.3625 160° South 473 544 34,000  Level Fort Worth Center
05:16PM 33.3925 -93.3083 159° South 473 544 34,000  Level Fort Worth Center
05:17PM 33.2697 -93.2494 158° South 468 539 34,000  Level Fort Worth Center
05:18PM 33.1489 -93.1956 160° South 468 539 34,000  Level Fort Worth Center
05:19PM 33.0258 -93.1419 160° South 468 539 34,000  Level Fort Worth Center
05:20PM 32.9031 -93.0861 159° South 473 544 34,000  Level Fort Worth Center
05:21PM 32.7811 -93.0597 170° South 473 544 34,000  Level Fort Worth Center
05:22PM 32.6600 -93.1200 203° Southwest 440 506 34,000  Level Fort Worth Center
05:23PM 32.5589 -93.2136 218° Southwest 449 517 34,000  Level Fort Worth Center
05:24PM 32.4814 -93.3328 232° Southwest 449 517 34,000  Level Fort Worth Center
05:25PM 32.3972 -93.4497 230° Southwest 454 522 34,000  Level Fort Worth Center
05:26PM 32.3089 -93.5594 226° Southwest 461 531 34,000  Level Fort Worth Center
05:27PM 32.1928 -93.6503 214° Southwest 453 521 34,000  Level Fort Worth Center
05:28PM 32.0839 -93.7136 206° Southwest 468 539 34,000  Level Fort Worth Center
05:29PM 31.9667 -93.7769 205° Southwest 468 539 34,000  Level Fort Worth Center
05:31PM 31.8006 -93.8572 202° Southwest 475 547 34,000  Level Houston Center
05:32PM 31.6522 -93.9117 197° South 469 540 34,000  Level Houston Center
05:33PM 31.5222 -93.9456 193° South 474 545 34,000  Level Houston Center
05:34PM 31.3939 -93.9853 195° South 476 548 34,000  Level Houston Center
05:35PM 31.2753 -94.0539 206° Southwest 472 543 34,000 -780 Level Houston Center
05:36PM 31.1600 -94.1233 207° Southwest 465 535 32,400 -2,040 Descending Houston Center
05:37PM 31.0442 -94.1914 207° Southwest 461 531 29,900 -2,400 Descending Houston Center
05:38PM 30.9294 -94.2594 207° Southwest 461 531 27,500 -2,400 Descending Houston Center
05:39PM 30.8153 -94.3267 207° Southwest 458 527 25,000 -2,400 Descending Houston Center
05:40PM 30.7028 -94.3939 207° Southwest 445 512 22,600 -2,220 Descending Houston Center
05:41PM 30.6039 -94.4514 207° Southwest 414 476 20,500 -2,160 Descending Houston Center
05:42PM 30.4967 -94.5208 209° Southwest 379 436 18,200 -2,040 Descending Houston Center
05:43PM 30.4353 -94.6086 231° Southwest 368 423 16,300 -1,860 Descending Houston Center
05:44PM 30.3744 -94.7039 234° Southwest 368 423 14,400 -1,500 Descending Houston Center
05:45PM 30.2975 -94.8236 233° Southwest 350 403 13,000 -1,020 Descending Houston Center
05:46PM 30.2578 -94.8844 233° Southwest 352 405 12,400 -1,140 Descending Houston Center
05:47PM 30.1969 -94.9781 233° Southwest 359 413 11,000 -720 Descending Houston Center
05:48PM 30.1178 -95.0764 227° Southwest 362 417 11,000 -540 Level Houston Center
05:49PM 30.0367 -95.1131 201° Southwest 320 368 9,900 -1,320 Descending Houston Center
05:50PM 29.9606 -95.1458 200° South 296 341 8,400 -960 Descending Houston Center
05:51PM 29.8861 -95.1783 201° Southwest 289 333 8,000 -240 Descending Houston Center
05:52PM 29.8103 -95.2106 200° South 290 334 8,000 -720 Level Houston Center
05:53PM 29.7383 -95.2419 201° Southwest 282 325 6,600 -1,020 Descending Houston Center
05:54PM 29.6608 -95.2756 201° Southwest 249 287 6,000 -1,200 Descending Houston Center
05:55PM 29.6375 -95.3450 249° West 237 273 4,200 -1,920 Descending Houston Center
05:57PM 29.6444 -95.4122 277° West 237 273 2,100 -1,080 Descending Houston Center
05:58PM 29.6936 -95.4258 346° North 218 251 2,100 -300 Level Houston Center
05:59PM 29.7019 -95.3756 79° East 179 206 1,500 -300 Descending Houston Center
06:00PM 29.6892 -95.3317 109° East 165 190 1,500 -480 Level Houston Center
06:01PM 29.6661 -95.3039 134° Southeast 137 158 600 -720 Descending Houston Center
06:02PM 29.6433 -95.2764 134° Southeast 122 140 100 -540 Descending Houston Center